sensor_id;sensor_type;location;lat;lon;timestamp;pressure;altitude;pressure_sealevel;temperature;humidity
35655;BME280;21773;50.010;19.972;2023-02-28T00:01:02;99960.78;;;5.90;41.93
35655;BME280;21773;50.010;19.972;2023-02-28T00:04:07;99965.59;;;5.86;41.77
35655;BME280;21773;50.010;19.972;2023-02-28T00:07:11;99974.31;;;5.96;41.66
35655;BME280;21773;50.010;19.972;2023-02-28T00:10:16;99972.97;;;5.92;42.16
35655;BME280;21773;50.010;19.972;2023-02-28T00:13:22;99975.59;;;5.84;41.90
35655;BME280;21773;50.010;19.972;2023-02-28T00:16:25;99975.59;;;5.84;41.90
35655;BME280;21773;50.010;19.972;2023-02-28T00:19:30;99978.28;;;5.84;42.09
35655;BME280;21773;50.010;19.972;2023-02-28T00:22:34;99979.81;;;5.87;41.95
35655;BME280;21773;50.010;19.972;2023-02-28T00:25:37;99984.28;;;5.78;42.16
35655;BME280;21773;50.010;19.972;2023-02-28T00:28:40;99980.47;;;5.81;42.06
35655;BME280;21773;50.010;19.972;2023-02-28T00:31:44;99981.97;;;5.83;42.45
35655;BME280;21773;50.010;19.972;2023-02-28T00:34:49;99977.25;;;5.69;42.42
35655;BME280;21773;50.010;19.972;2023-02-28T00:37:52;99981.94;;;5.75;42.24
35655;BME280;21773;50.010;19.972;2023-02-28T00:40:55;99981.06;;;5.58;42.23
35655;BME280;21773;50.010;19.972;2023-02-28T00:44:00;99977.19;;;5.53;42.24
35655;BME280;21773;50.010;19.972;2023-02-28T00:47:06;99981.19;;;5.49;42.29
35655;BME280;21773;50.010;19.972;2023-02-28T00:50:11;99982.53;;;5.45;42.69
35655;BME280;21773;50.010;19.972;2023-02-28T00:53:14;99977.53;;;5.42;42.76
35655;BME280;21773;50.010;19.972;2023-02-28T00:56:18;99978.34;;;5.42;43.05
35655;BME280;21773;50.010;19.972;2023-02-28T00:59:21;99974.16;;;5.40;42.90
35655;BME280;21773;50.010;19.972;2023-02-28T01:02:25;99976.97;;;5.38;43.02
35655;BME280;21773;50.010;19.972;2023-02-28T01:05:30;99980.47;;;5.31;43.18
35655;BME280;21773;50.010;19.972;2023-02-28T01:08:33;99977.81;;;5.31;43.28
35655;BME280;21773;50.010;19.972;2023-02-28T01:11:37;99987.31;;;5.33;43.19
35655;BME280;21773;50.010;19.972;2023-02-28T01:14:41;99986.34;;;5.34;43.01
35655;BME280;21773;50.010;19.972;2023-02-28T01:17:44;99982.66;;;5.35;43.30
35655;BME280;21773;50.010;19.972;2023-02-28T01:20:49;99972.94;;;5.26;43.33
35655;BME280;21773;50.010;19.972;2023-02-28T01:23:56;99980.84;;;5.36;43.19
35655;BME280;21773;50.010;19.972;2023-02-28T01:26:59;99971.13;;;5.35;43.13
35655;BME280;21773;50.010;19.972;2023-02-28T01:30:03;99973.81;;;5.35;42.99
35655;BME280;21773;50.010;19.972;2023-02-28T01:33:07;99987.03;;;5.36;42.95
35655;BME280;21773;50.010;19.972;2023-02-28T01:36:14;99982.16;;;5.32;43.37
35655;BME280;21773;50.010;19.972;2023-02-28T01:39:17;99978.66;;;5.39;43.40
35655;BME280;21773;50.010;19.972;2023-02-28T01:42:21;99973.47;;;5.38;43.76
35655;BME280;21773;50.010;19.972;2023-02-28T01:45:27;99979.66;;;5.38;43.27
35655;BME280;21773;50.010;19.972;2023-02-28T01:48:32;99976.34;;;5.44;43.05
35655;BME280;21773;50.010;19.972;2023-02-28T01:51:41;99980.19;;;5.42;42.87
35655;BME280;21773;50.010;19.972;2023-02-28T01:54:55;99976.69;;;5.41;43.35
35655;BME280;21773;50.010;19.972;2023-02-28T01:58:02;99968.81;;;5.40;43.16
35655;BME280;21773;50.010;19.972;2023-02-28T02:01:07;99973.47;;;5.38;43.19
35655;BME280;21773;50.010;19.972;2023-02-28T02:04:10;99971.97;;;5.35;43.45
35655;BME280;21773;50.010;19.972;2023-02-28T02:07:17;99941.34;;;5.21;43.40
35655;BME280;21773;50.010;19.972;2023-02-28T02:10:24;99969.78;;;5.31;43.54
35655;BME280;21773;50.010;19.972;2023-02-28T02:13:38;99965.75;;;5.27;43.76
35655;BME280;21773;50.010;19.972;2023-02-28T02:16:55;99966.25;;;5.22;43.57
35655;BME280;21773;50.010;19.972;2023-02-28T02:20:32;99965.06;;;5.16;43.86
35655;BME280;21773;50.010;19.972;2023-02-28T02:24:13;99963.00;;;5.10;43.86
35655;BME280;21773;50.010;19.972;2023-02-28T02:27:50;99965.81;;;5.01;43.90
35655;BME280;21773;50.010;19.972;2023-02-28T02:31:32;99964.75;;;4.94;43.77
35655;BME280;21773;50.010;19.972;2023-02-28T02:34:54;99956.94;;;4.92;43.72
35655;BME280;21773;50.010;19.972;2023-02-28T02:38:08;99962.56;;;4.89;44.10
35655;BME280;21773;50.010;19.972;2023-02-28T02:41:17;99955.03;;;4.85;44.14
35655;BME280;21773;50.010;19.972;2023-02-28T02:44:25;99951.69;;;4.83;43.72
35655;BME280;21773;50.010;19.972;2023-02-28T02:47:30;99951.53;;;4.84;44.20
35655;BME280;21773;50.010;19.972;2023-02-28T02:50:41;99950.34;;;4.78;44.17
35655;BME280;21773;50.010;19.972;2023-02-28T02:53:49;99950.50;;;4.77;44.58
35655;BME280;21773;50.010;19.972;2023-02-28T02:56:56;99946.78;;;4.70;44.57
35655;BME280;21773;50.010;19.972;2023-02-28T03:00:04;99949.06;;;4.65;44.76
35655;BME280;21773;50.010;19.972;2023-02-28T03:03:11;99946.03;;;4.60;45.12
35655;BME280;21773;50.010;19.972;2023-02-28T03:06:16;99946.69;;;4.54;45.45
35655;BME280;21773;50.010;19.972;2023-02-28T03:09:20;99937.38;;;4.58;45.42
35655;BME280;21773;50.010;19.972;2023-02-28T03:12:31;99949.50;;;4.52;45.77
35655;BME280;21773;50.010;19.972;2023-02-28T03:15:45;99945.84;;;4.53;45.64
35655;BME280;21773;50.010;19.972;2023-02-28T03:19:02;99949.16;;;4.47;45.66
35655;BME280;21773;50.010;19.972;2023-02-28T03:22:16;99951.59;;;4.41;45.84
35655;BME280;21773;50.010;19.972;2023-02-28T03:25:29;99956.75;;;4.34;46.30
35655;BME280;21773;50.010;19.972;2023-02-28T03:28:41;99960.53;;;4.31;46.09
35655;BME280;21773;50.010;19.972;2023-02-28T03:31:50;99966.50;;;4.25;46.28
35655;BME280;21773;50.010;19.972;2023-02-28T03:35:00;99951.03;;;4.11;46.55
35655;BME280;21773;50.010;19.972;2023-02-28T03:38:13;99966.59;;;4.16;46.88
35655;BME280;21773;50.010;19.972;2023-02-28T03:41:22;99967.75;;;4.13;46.87
35655;BME280;21773;50.010;19.972;2023-02-28T03:44:30;99971.53;;;4.11;46.97
35655;BME280;21773;50.010;19.972;2023-02-28T03:47:39;99965.69;;;4.07;46.64
35655;BME280;21773;50.010;19.972;2023-02-28T03:50:48;99971.34;;;4.04;46.94
35655;BME280;21773;50.010;19.972;2023-02-28T03:53:58;99977.97;;;4.00;47.01
35655;BME280;21773;50.010;19.972;2023-02-28T03:57:07;99969.75;;;3.93;47.05
35655;BME280;21773;50.010;19.972;2023-02-28T04:00:17;99969.88;;;3.92;46.97
35655;BME280;21773;50.010;19.972;2023-02-28T04:03:22;99980.72;;;3.90;47.18
35655;BME280;21773;50.010;19.972;2023-02-28T04:06:26;99962.56;;;3.76;47.34
35655;BME280;21773;50.010;19.972;2023-02-28T04:09:31;99984.00;;;3.84;47.65
35655;BME280;21773;50.010;19.972;2023-02-28T04:12:34;99987.66;;;3.83;47.21
35655;BME280;21773;50.010;19.972;2023-02-28T04:15:37;99989.63;;;3.81;47.41
35655;BME280;21773;50.010;19.972;2023-02-28T04:18:41;99990.84;;;3.69;47.83
35655;BME280;21773;50.010;19.972;2023-02-28T04:21:47;99991.38;;;3.73;47.30
35655;BME280;21773;50.010;19.972;2023-02-28T04:24:52;99987.19;;;3.70;47.17
35655;BME280;21773;50.010;19.972;2023-02-28T04:27:56;99991.97;;;3.67;47.59
35655;BME280;21773;50.010;19.972;2023-02-28T04:31:02;99993.81;;;3.66;47.42
35655;BME280;21773;50.010;19.972;2023-02-28T04:34:06;100000.28;;;3.64;47.25
35655;BME280;21773;50.010;19.972;2023-02-28T04:37:09;99997.75;;;3.62;47.47
35655;BME280;21773;50.010;19.972;2023-02-28T04:40:16;100003.25;;;3.61;47.46
35655;BME280;21773;50.010;19.972;2023-02-28T04:43:20;100001.97;;;3.65;46.93
35655;BME280;21773;50.010;19.972;2023-02-28T04:46:23;99998.59;;;3.63;47.39
35655;BME280;21773;50.010;19.972;2023-02-28T04:49:26;100003.41;;;3.59;47.05
35655;BME280;21773;50.010;19.972;2023-02-28T04:52:30;99995.00;;;3.54;47.35
35655;BME280;21773;50.010;19.972;2023-02-28T04:55:35;99999.94;;;3.49;47.33
35655;BME280;21773;50.010;19.972;2023-02-28T04:58:38;99998.44;;;3.46;47.21
35655;BME280;21773;50.010;19.972;2023-02-28T05:01:45;100007.09;;;3.48;47.08
35655;BME280;21773;50.010;19.972;2023-02-28T05:04:49;100010.69;;;3.57;47.06
35655;BME280;21773;50.010;19.972;2023-02-28T05:07:52;100018.25;;;3.62;46.92
35655;BME280;21773;50.010;19.972;2023-02-28T05:10:59;100002.94;;;3.46;46.82
35655;BME280;21773;50.010;19.972;2023-02-28T05:14:03;100011.16;;;3.53;46.87
35655;BME280;21773;50.010;19.972;2023-02-28T05:17:08;100006.13;;;3.49;47.10
35655;BME280;21773;50.010;19.972;2023-02-28T05:20:12;100013.53;;;3.56;46.87
35655;BME280;21773;50.010;19.972;2023-02-28T05:23:17;100016.03;;;3.57;47.09
35655;BME280;21773;50.010;19.972;2023-02-28T05:26:24;100020.25;;;3.60;46.94
35655;BME280;21773;50.010;19.972;2023-02-28T05:29:28;100017.13;;;3.64;47.17
35655;BME280;21773;50.010;19.972;2023-02-28T05:32:31;99995.16;;;3.53;46.76
35655;BME280;21773;50.010;19.972;2023-02-28T05:35:37;100025.38;;;3.71;47.07
35655;BME280;21773;50.010;19.972;2023-02-28T05:38:41;100010.25;;;3.62;46.93
35655;BME280;21773;50.010;19.972;2023-02-28T05:41:46;100039.09;;;3.76;46.95
35655;BME280;21773;50.010;19.972;2023-02-28T05:44:50;100039.78;;;3.78;46.85
35655;BME280;21773;50.010;19.972;2023-02-28T05:47:54;100042.97;;;3.81;46.99
35655;BME280;21773;50.010;19.972;2023-02-28T05:50:57;100045.75;;;3.89;47.07
35655;BME280;21773;50.010;19.972;2023-02-28T05:54:01;100057.03;;;4.01;46.59
35655;BME280;21773;50.010;19.972;2023-02-28T05:57:05;100049.41;;;4.06;46.68
35655;BME280;21773;50.010;19.972;2023-02-28T06:00:25;100053.00;;;4.15;46.58
35655;BME280;21773;50.010;19.972;2023-02-28T06:03:28;100051.84;;;4.17;46.79
35655;BME280;21773;50.010;19.972;2023-02-28T06:06:32;100053.22;;;4.21;46.62
35655;BME280;21773;50.010;19.972;2023-02-28T06:09:38;100051.31;;;4.31;46.16
35655;BME280;21773;50.010;19.972;2023-02-28T06:12:42;100055.06;;;4.39;46.35
35655;BME280;21773;50.010;19.972;2023-02-28T06:15:46;100061.44;;;4.46;46.17
35655;BME280;21773;50.010;19.972;2023-02-28T06:18:49;100063.50;;;4.52;46.29
35655;BME280;21773;50.010;19.972;2023-02-28T06:21:53;100067.84;;;4.53;45.97
35655;BME280;21773;50.010;19.972;2023-02-28T06:24:56;100065.25;;;4.61;45.87
35655;BME280;21773;50.010;19.972;2023-02-28T06:28:01;100068.16;;;4.67;45.90
35655;BME280;21773;50.010;19.972;2023-02-28T06:31:08;100066.69;;;4.55;46.03
35655;BME280;21773;50.010;19.972;2023-02-28T06:34:12;100074.00;;;4.71;46.19
35655;BME280;21773;50.010;19.972;2023-02-28T06:37:15;100077.38;;;4.73;45.56
35655;BME280;21773;50.010;19.972;2023-02-28T06:40:19;100080.03;;;4.73;45.89
35655;BME280;21773;50.010;19.972;2023-02-28T06:43:24;100078.50;;;4.88;45.44
35655;BME280;21773;50.010;19.972;2023-02-28T06:46:28;100086.19;;;4.91;45.23
35655;BME280;21773;50.010;19.972;2023-02-28T06:49:33;100071.88;;;5.00;45.48
35655;BME280;21773;50.010;19.972;2023-02-28T06:52:36;100077.34;;;5.16;45.10
35655;BME280;21773;50.010;19.972;2023-02-28T06:55:40;100084.53;;;5.50;44.33
35655;BME280;21773;50.010;19.972;2023-02-28T06:58:47;100081.50;;;5.87;43.80
35655;BME280;21773;50.010;19.972;2023-02-28T07:01:51;100098.31;;;6.05;43.15
35655;BME280;21773;50.010;19.972;2023-02-28T07:04:54;100093.63;;;5.99;43.02
35655;BME280;21773;50.010;19.972;2023-02-28T07:07:58;100100.44;;;5.93;43.15
35655;BME280;21773;50.010;19.972;2023-02-28T07:11:02;100102.38;;;5.83;43.33
35655;BME280;21773;50.010;19.972;2023-02-28T07:14:07;100105.56;;;5.79;43.78
35655;BME280;21773;50.010;19.972;2023-02-28T07:17:11;100102.78;;;5.62;43.56
35655;BME280;21773;50.010;19.972;2023-02-28T07:20:14;100111.72;;;5.71;43.48
35655;BME280;21773;50.010;19.972;2023-02-28T07:23:18;100116.88;;;5.73;43.91
35655;BME280;21773;50.010;19.972;2023-02-28T07:26:21;100115.91;;;5.82;43.63
35655;BME280;21773;50.010;19.972;2023-02-28T07:29:26;100115.72;;;6.01;43.51
35655;BME280;21773;50.010;19.972;2023-02-28T07:32:29;100112.63;;;6.46;42.58
35655;BME280;21773;50.010;19.972;2023-02-28T07:35:33;100114.06;;;7.46;40.99
35655;BME280;21773;50.010;19.972;2023-02-28T07:38:37;100112.88;;;8.26;39.44
35655;BME280;21773;50.010;19.972;2023-02-28T07:41:40;100113.34;;;8.60;38.18
35655;BME280;21773;50.010;19.972;2023-02-28T07:44:47;100096.22;;;8.39;37.83
35655;BME280;21773;50.010;19.972;2023-02-28T07:47:50;100114.34;;;8.37;37.94
35655;BME280;21773;50.010;19.972;2023-02-28T07:50:54;100113.41;;;8.21;38.07
35655;BME280;21773;50.010;19.972;2023-02-28T07:53:58;100111.06;;;8.18;38.04
35655;BME280;21773;50.010;19.972;2023-02-28T07:57:01;100113.84;;;8.02;37.38
35655;BME280;21773;50.010;19.972;2023-02-28T08:00:08;100110.19;;;7.95;38.40
35655;BME280;21773;50.010;19.972;2023-02-28T08:03:14;100112.94;;;7.79;37.84
35655;BME280;21773;50.010;19.972;2023-02-28T08:06:19;100108.34;;;7.96;37.93
35655;BME280;21773;50.010;19.972;2023-02-28T08:09:24;100101.31;;;8.25;37.62
35655;BME280;21773;50.010;19.972;2023-02-28T08:12:27;100107.78;;;8.62;37.13
35655;BME280;21773;50.010;19.972;2023-02-28T08:15:32;100096.97;;;8.93;36.12
35655;BME280;21773;50.010;19.972;2023-02-28T08:18:35;100109.78;;;9.05;35.53
35655;BME280;21773;50.010;19.972;2023-02-28T08:21:39;100111.94;;;9.25;35.39
35655;BME280;21773;50.010;19.972;2023-02-28T08:24:43;100113.94;;;9.75;34.28
35655;BME280;21773;50.010;19.972;2023-02-28T08:27:46;100113.53;;;9.92;31.21
35655;BME280;21773;50.010;19.972;2023-02-28T08:30:51;100102.44;;;9.81;31.78
35655;BME280;21773;50.010;19.972;2023-02-28T08:33:54;100109.94;;;9.71;31.55
35655;BME280;21773;50.010;19.972;2023-02-28T08:37:00;100109.47;;;10.47;31.44
35655;BME280;21773;50.010;19.972;2023-02-28T08:40:05;100107.34;;;11.68;29.81
35655;BME280;21773;50.010;19.972;2023-02-28T08:43:08;100108.00;;;13.58;27.10
35655;BME280;21773;50.010;19.972;2023-02-28T08:46:13;100101.81;;;16.13;24.77
35655;BME280;21773;50.010;19.972;2023-02-28T08:49:16;100110.31;;;17.71;21.66
35655;BME280;21773;50.010;19.972;2023-02-28T08:52:20;100096.16;;;20.21;19.79
35655;BME280;21773;50.010;19.972;2023-02-28T08:55:24;100102.91;;;21.10;17.53
35655;BME280;21773;50.010;19.972;2023-02-28T08:58:27;100100.63;;;22.13;16.58
35655;BME280;21773;50.010;19.972;2023-02-28T09:01:32;100105.00;;;23.67;16.24
35655;BME280;21773;50.010;19.972;2023-02-28T09:04:35;100103.50;;;25.14;15.03
35655;BME280;21773;50.010;19.972;2023-02-28T09:07:39;100107.63;;;26.32;14.30
35655;BME280;21773;50.010;19.972;2023-02-28T09:10:42;100103.56;;;26.66;12.34
35655;BME280;21773;50.010;19.972;2023-02-28T09:13:46;100098.59;;;26.63;12.54
35655;BME280;21773;50.010;19.972;2023-02-28T09:16:51;100086.41;;;26.46;12.93
35655;BME280;21773;50.010;19.972;2023-02-28T09:19:54;100095.13;;;26.34;12.77
35655;BME280;21773;50.010;19.972;2023-02-28T09:22:59;100084.94;;;26.53;12.48
35655;BME280;21773;50.010;19.972;2023-02-28T09:26:03;100101.91;;;27.03;12.75
35655;BME280;21773;50.010;19.972;2023-02-28T09:29:06;100089.25;;;26.41;12.63
35655;BME280;21773;50.010;19.972;2023-02-28T09:32:11;100099.66;;;26.25;13.18
35655;BME280;21773;50.010;19.972;2023-02-28T09:35:14;100096.06;;;26.48;12.77
35655;BME280;21773;50.010;19.972;2023-02-28T09:38:18;100089.75;;;25.95;11.97
35655;BME280;21773;50.010;19.972;2023-02-28T09:41:24;100086.16;;;26.23;13.36
35655;BME280;21773;50.010;19.972;2023-02-28T09:44:33;100095.75;;;26.92;11.89
35655;BME280;21773;50.010;19.972;2023-02-28T09:47:42;100094.06;;;27.61;11.93
35655;BME280;21773;50.010;19.972;2023-02-28T09:50:49;100094.34;;;27.60;12.07
35655;BME280;21773;50.010;19.972;2023-02-28T09:53:53;100090.09;;;26.60;12.36
35655;BME280;21773;50.010;19.972;2023-02-28T09:57:07;100101.06;;;26.84;12.14
35655;BME280;21773;50.010;19.972;2023-02-28T10:00:15;100103.50;;;27.74;12.34
35655;BME280;21773;50.010;19.972;2023-02-28T10:03:35;100097.66;;;27.43;11.25
35655;BME280;21773;50.010;19.972;2023-02-28T10:06:44;100095.25;;;27.04;12.26
35655;BME280;21773;50.010;19.972;2023-02-28T10:09:53;100086.59;;;25.83;12.36
35655;BME280;21773;50.010;19.972;2023-02-28T10:13:00;100091.56;;;24.89;12.97
35655;BME280;21773;50.010;19.972;2023-02-28T10:16:07;100088.81;;;25.81;12.90
35655;BME280;21773;50.010;19.972;2023-02-28T10:19:17;100093.84;;;26.03;12.85
35655;BME280;21773;50.010;19.972;2023-02-28T10:22:26;100084.31;;;26.56;11.71
35655;BME280;21773;50.010;19.972;2023-02-28T10:25:32;100079.78;;;27.35;12.01
35655;BME280;21773;50.010;19.972;2023-02-28T10:28:35;100070.47;;;28.05;11.68
35655;BME280;21773;50.010;19.972;2023-02-28T10:31:39;100066.16;;;28.26;11.40
35655;BME280;21773;50.010;19.972;2023-02-28T10:34:49;100057.44;;;28.32;10.72
35655;BME280;21773;50.010;19.972;2023-02-28T10:37:56;100072.25;;;28.77;10.81
35655;BME280;21773;50.010;19.972;2023-02-28T10:41:07;100064.69;;;28.42;11.39
35655;BME280;21773;50.010;19.972;2023-02-28T10:44:17;100066.47;;;28.38;11.19
35655;BME280;21773;50.010;19.972;2023-02-28T10:47:23;100060.75;;;28.57;11.90
35655;BME280;21773;50.010;19.972;2023-02-28T10:50:33;100060.34;;;28.50;11.74
35655;BME280;21773;50.010;19.972;2023-02-28T10:53:45;100054.78;;;28.63;11.37
35655;BME280;21773;50.010;19.972;2023-02-28T10:57:07;100051.16;;;28.99;11.14
35655;BME280;21773;50.010;19.972;2023-02-28T11:00:16;100052.75;;;28.91;10.99
35655;BME280;21773;50.010;19.972;2023-02-28T11:03:29;100043.41;;;28.51;11.48
35655;BME280;21773;50.010;19.972;2023-02-28T11:06:34;100046.22;;;28.10;10.87
35655;BME280;21773;50.010;19.972;2023-02-28T11:09:39;100038.03;;;28.05;11.56
35655;BME280;21773;50.010;19.972;2023-02-28T11:12:45;100036.78;;;27.84;11.08
35655;BME280;21773;50.010;19.972;2023-02-28T11:15:55;100026.41;;;27.62;11.38
35655;BME280;21773;50.010;19.972;2023-02-28T11:19:02;100030.75;;;27.03;12.23
35655;BME280;21773;50.010;19.972;2023-02-28T11:22:07;100027.66;;;27.24;11.87
35655;BME280;21773;50.010;19.972;2023-02-28T11:25:20;100015.75;;;27.83;11.73
35655;BME280;21773;50.010;19.972;2023-02-28T11:28:27;100016.88;;;27.82;11.51
35655;BME280;21773;50.010;19.972;2023-02-28T11:31:31;100008.66;;;28.04;11.15
35655;BME280;21773;50.010;19.972;2023-02-28T11:34:38;100008.91;;;28.43;11.04
35655;BME280;21773;50.010;19.972;2023-02-28T11:37:43;100007.19;;;28.07;10.88
35655;BME280;21773;50.010;19.972;2023-02-28T11:41:01;100010.16;;;28.10;11.39
35655;BME280;21773;50.010;19.972;2023-02-28T11:44:18;100007.84;;;27.90;11.42
35655;BME280;21773;50.010;19.972;2023-02-28T11:47:33;100000.88;;;27.79;11.34
35655;BME280;21773;50.010;19.972;2023-02-28T11:50:52;99995.22;;;27.70;11.79
35655;BME280;21773;50.010;19.972;2023-02-28T11:54:21;100001.28;;;27.99;11.75
35655;BME280;21773;50.010;19.972;2023-02-28T11:57:45;100002.09;;;27.73;11.18
35655;BME280;21773;50.010;19.972;2023-02-28T12:01:21;99997.06;;;27.88;11.60
35655;BME280;21773;50.010;19.972;2023-02-28T12:04:36;99976.41;;;27.81;11.24
35655;BME280;21773;50.010;19.972;2023-02-28T12:07:54;99980.91;;;27.36;11.54
35655;BME280;21773;50.010;19.972;2023-02-28T12:11:13;99995.22;;;27.10;12.28
35655;BME280;21773;50.010;19.972;2023-02-28T12:14:30;99991.72;;;27.05;12.30
35655;BME280;21773;50.010;19.972;2023-02-28T12:17:51;99992.00;;;27.03;11.99
35655;BME280;21773;50.010;19.972;2023-02-28T12:21:04;99993.03;;;27.07;12.35
35655;BME280;21773;50.010;19.972;2023-02-28T12:24:23;100000.25;;;27.22;11.71
35655;BME280;21773;50.010;19.972;2023-02-28T12:27:37;99993.84;;;26.76;12.49
35655;BME280;21773;50.010;19.972;2023-02-28T12:30:49;99991.22;;;26.84;12.20
35655;BME280;21773;50.010;19.972;2023-02-28T12:33:57;99995.91;;;26.51;12.10
35655;BME280;21773;50.010;19.972;2023-02-28T12:37:06;99997.13;;;26.03;12.87
35655;BME280;21773;50.010;19.972;2023-02-28T12:40:12;99991.53;;;25.08;13.11
35655;BME280;21773;50.010;19.972;2023-02-28T12:43:18;99988.34;;;24.17;14.24
35655;BME280;21773;50.010;19.972;2023-02-28T12:46:27;100000.97;;;23.54;14.61
35655;BME280;21773;50.010;19.972;2023-02-28T12:49:36;99990.00;;;22.43;15.13
35655;BME280;21773;50.010;19.972;2023-02-28T12:52:49;99991.81;;;22.02;15.83
35655;BME280;21773;50.010;19.972;2023-02-28T12:56:07;99990.44;;;21.47;15.94
35655;BME280;21773;50.010;19.972;2023-02-28T12:59:19;99982.47;;;20.13;16.72
35655;BME280;21773;50.010;19.972;2023-02-28T13:02:53;99989.28;;;19.67;17.92
35655;BME280;21773;50.010;19.972;2023-02-28T13:09:34;99986.34;;;19.14;17.85
35655;BME280;21773;50.010;19.972;2023-02-28T13:12:47;99978.25;;;18.85;18.85
35655;BME280;21773;50.010;19.972;2023-02-28T13:16:02;99973.53;;;18.81;19.00
35655;BME280;21773;50.010;19.972;2023-02-28T13:19:10;99969.63;;;18.77;18.99
35655;BME280;21773;50.010;19.972;2023-02-28T13:22:19;99971.63;;;18.65;18.99
35655;BME280;21773;50.010;19.972;2023-02-28T13:25:51;99973.56;;;18.52;18.90
35655;BME280;21773;50.010;19.972;2023-02-28T13:29:27;99975.31;;;18.42;19.32
35655;BME280;21773;50.010;19.972;2023-02-28T13:32:35;99968.84;;;18.03;19.19
35655;BME280;21773;50.010;19.972;2023-02-28T13:35:44;99969.47;;;17.42;19.82
35655;BME280;21773;50.010;19.972;2023-02-28T13:38:49;99950.66;;;16.82;20.27
35655;BME280;21773;50.010;19.972;2023-02-28T13:41:53;99962.66;;;16.81;21.36
35655;BME280;21773;50.010;19.972;2023-02-28T13:45:22;99957.06;;;16.87;21.27
35655;BME280;21773;50.010;19.972;2023-02-28T13:48:29;99958.13;;;16.86;21.50
35655;BME280;21773;50.010;19.972;2023-02-28T13:51:39;99954.00;;;16.84;21.62
35655;BME280;21773;50.010;19.972;2023-02-28T13:55:00;99958.84;;;16.82;21.20
35655;BME280;21773;50.010;19.972;2023-02-28T13:58:24;99942.94;;;16.56;21.07
35655;BME280;21773;50.010;19.972;2023-02-28T14:01:46;99934.13;;;16.42;22.02
35655;BME280;21773;50.010;19.972;2023-02-28T14:05:04;99934.03;;;16.37;21.83
35655;BME280;21773;50.010;19.972;2023-02-28T14:08:15;99924.88;;;16.20;21.67
35655;BME280;21773;50.010;19.972;2023-02-28T14:11:29;99934.47;;;15.44;22.20
35655;BME280;21773;50.010;19.972;2023-02-28T14:14:53;99928.47;;;15.24;22.79
35655;BME280;21773;50.010;19.972;2023-02-28T14:17:59;99905.50;;;15.02;23.18
35655;BME280;21773;50.010;19.972;2023-02-28T14:21:14;99915.94;;;15.05;22.97
35655;BME280;21773;50.010;19.972;2023-02-28T14:24:33;99928.31;;;15.19;23.31
35655;BME280;21773;50.010;19.972;2023-02-28T14:27:48;99920.53;;;15.04;23.28
35655;BME280;21773;50.010;19.972;2023-02-28T14:31:00;99928.75;;;15.16;23.19
35655;BME280;21773;50.010;19.972;2023-02-28T14:34:26;99926.78;;;15.05;23.36
35655;BME280;21773;50.010;19.972;2023-02-28T14:37:38;99930.78;;;15.02;23.62
35655;BME280;21773;50.010;19.972;2023-02-28T14:40:42;99923.50;;;14.96;23.61
35655;BME280;21773;50.010;19.972;2023-02-28T14:43:49;99918.53;;;14.75;23.63
35655;BME280;21773;50.010;19.972;2023-02-28T14:46:55;99918.13;;;14.22;24.40
35655;BME280;21773;50.010;19.972;2023-02-28T14:49:59;99929.03;;;14.09;24.50
35655;BME280;21773;50.010;19.972;2023-02-28T14:53:09;99933.88;;;14.07;24.64
35655;BME280;21773;50.010;19.972;2023-02-28T14:56:21;99923.63;;;14.09;25.13
35655;BME280;21773;50.010;19.972;2023-02-28T14:59:28;99927.22;;;14.03;24.73
35655;BME280;21773;50.010;19.972;2023-02-28T15:02:35;99934.28;;;14.04;25.09
35655;BME280;21773;50.010;19.972;2023-02-28T15:05:38;99930.03;;;13.83;25.07
35655;BME280;21773;50.010;19.972;2023-02-28T15:08:43;99926.84;;;13.55;25.20
35655;BME280;21773;50.010;19.972;2023-02-28T15:11:48;99934.88;;;13.30;25.64
35655;BME280;21773;50.010;19.972;2023-02-28T15:14:53;99932.03;;;12.98;25.91
35655;BME280;21773;50.010;19.972;2023-02-28T15:17:59;99929.16;;;12.74;26.30
35655;BME280;21773;50.010;19.972;2023-02-28T15:21:12;99929.16;;;12.74;26.38
35655;BME280;21773;50.010;19.972;2023-02-28T15:24:26;99927.69;;;12.71;27.03
35655;BME280;21773;50.010;19.972;2023-02-28T15:27:39;99926.88;;;12.57;27.19
35655;BME280;21773;50.010;19.972;2023-02-28T15:30:54;99927.31;;;12.28;27.48
35655;BME280;21773;50.010;19.972;2023-02-28T15:34:05;99936.44;;;12.01;28.09
35655;BME280;21773;50.010;19.972;2023-02-28T15:37:27;99936.78;;;11.78;27.98
35655;BME280;21773;50.010;19.972;2023-02-28T15:40:37;99933.19;;;11.58;28.42
35655;BME280;21773;50.010;19.972;2023-02-28T15:43:40;99938.50;;;11.45;28.68
35655;BME280;21773;50.010;19.972;2023-02-28T15:46:54;99932.44;;;11.29;29.31
35655;BME280;21773;50.010;19.972;2023-02-28T15:50:01;99935.06;;;11.16;29.28
35655;BME280;21773;50.010;19.972;2023-02-28T15:53:13;99938.31;;;10.99;29.59
35655;BME280;21773;50.010;19.972;2023-02-28T15:56:33;99940.28;;;10.83;29.67
35655;BME280;21773;50.010;19.972;2023-02-28T15:59:37;99940.16;;;10.64;30.09
35655;BME280;21773;50.010;19.972;2023-02-28T16:02:40;99944.56;;;10.43;30.61
35655;BME280;21773;50.010;19.972;2023-02-28T16:05:44;99934.63;;;10.02;31.20
35655;BME280;21773;50.010;19.972;2023-02-28T16:08:47;99949.47;;;9.76;31.60
35655;BME280;21773;50.010;19.972;2023-02-28T16:11:55;99949.63;;;9.53;31.89
35655;BME280;21773;50.010;19.972;2023-02-28T16:15:02;99951.91;;;9.21;32.77
35655;BME280;21773;50.010;19.972;2023-02-28T16:18:09;99947.75;;;9.03;33.06
35655;BME280;21773;50.010;19.972;2023-02-28T16:21:14;99950.03;;;8.77;33.36
35655;BME280;21773;50.010;19.972;2023-02-28T16:24:17;99945.88;;;8.60;33.40
35655;BME280;21773;50.010;19.972;2023-02-28T16:27:27;99950.97;;;8.55;33.48